Flugplatz Meppe Airport

Bericht für ETWM

vom 17.09. um 13:20 UTC

Wind 14 kt aus 300° in Böen 28 kt

Sichtweite 10 km oder mehr

gering bewölkt in 3800 ft

aufgelockert bewölkt in 6800 ft

Temperatur 16.0°C

Taupunkt 5.0°C

Luftfeuchtigkeit 48%

Luftdruck 1019 hPa

ETWM 171320Z 30014G28KT 9999 FEW038 SCT068 16/05 Q1019 BLU+
Keine Prognose (TAF) verfügbar.
Impressum